Aviation Digital Data Service (ADDS)

Output produced by METARs form (2042 UTC 17 November 2019)
found at http://www.aviationweather.gov/metar/data/
 
Forecast for: WBSB (BRUNEI INTL AIRP, MY)
Text: TAF WBSB 171650Z 1718/1900 18003KT 9999 SCT015 FEW015CB
Forecast period: 1800 UTC 17 November 2019 to 0000 UTC 18 November 2019
Forecast type: FROM: standard forecast or significant change
Winds: from the S (180 degrees) at 3 MPH (3 knots; 1.5 m/s)
Visibility: 6 or more miles 10+ km)
Ceiling: at least 12,000 feet AGL
Clouds: scattered clouds at 1500 feet AGL
few clouds at 1500 feet AGL
Weather: no significant weather forecast for this period
Text: TEMPO 1718/1722 4000 TSRA
Forecast period: 1800 to 2200 UTC 17 November 2019
Forecast type: TEMPORARY: The following changes expected for less than half the time period
Visibility: 2.49 miles (4.01 km)
Ceiling: unknown
Clouds: missing
Weather: TSRA  (rain associated with thunderstorm(s))
Text: BECMG 1800/1802 34006KT FEW016
Forecast period: 0000 UTC 18 November 2019 to 0000 UTC 19 November 2019
Forecast type: BECOMING: Conditions expected to become as follows by 0200 UTC 18 November 2019
Winds: from the NNW (340 degrees) at 7 MPH (6 knots; 3.1 m/s)
Visibility: 6 or more miles 10+ km)
Ceiling: at least 12,000 feet AGL
Clouds: few clouds at 1600 feet AGL
Weather: no significant weather forecast for this period